Buena Park, California
Current Conditions -  °F | °C
As of 7:53 AM on Saturday 22 Nov 2014 (Local Time) from KFUL Reporting Station
Clear Clear  
Wind Chill: 58°   Ceiling: Unl
Heat Index: 58°   Visibility: 10mi
Dew Point: 47°   Wind: 5mph
Humidity: 67%   Direction: 90°E
Pressure: 30.09"   Gusts: NA
Location:  33.86°N, 117.99°W
Report Text: KFUL 221553Z 09004KT 10SM CLR 14/08 A3009 RMK AO2 SLP189 T01440083
Loading
Personal Weather Stations






























Interactive Weather Map New forecast layout! Learn more

10-Day Weather Forecast

Advertisements
Track Severe Weather on mobile